Time;durP1;ratioP1;P1;durP2;ratioP2;P2;SDS_P1;SDS_P2;PMS_P1;PMS_P2;Temp;Humidity;BMP_temperature;BMP_pressure;BME280_temperature;BME280_humidity;BME280_pressure;Samples;Min_cycle;Max_cycle;Signal;HPM_P1;HPM_P2
2022/06/13 00:01:40;;;;;;;7.28;2.78;;;;;;;;;;7329452;19;162786;-17
2022/06/13 00:04:13;;;;;;;6.80;2.70;;;;;;;;;;7330022;19;153974;-17
2022/06/13 00:06:45;;;;;;;5.40;2.40;;;;;;;;;;7329575;19;153520;-17
2022/06/13 00:09:17;;;;;;;6.07;2.55;;;;;;;;;;7328885;19;162099;-17
2022/06/13 00:11:48;;;;;;;6.18;2.67;;;;;;;;;;7332301;19;162419;-17
2022/06/13 00:14:19;;;;;;;7.35;2.53;;;;;;;;;;7328855;19;153982;-17
2022/06/13 00:16:50;;;;;;;5.47;2.65;;;;;;;;;;7329396;19;153802;-16
2022/06/13 00:19:24;;;;;;;6.15;3.03;;;;;;;;;;7328904;19;162001;-16
2022/06/13 00:21:56;;;;;;;5.50;2.67;;;;;;;;;;7329203;19;162334;-17
2022/06/13 00:24:27;;;;;;;6.57;2.47;;;;;;;;;;7329194;19;154056;-17
2022/06/13 00:26:58;;;;;;;4.30;2.30;;;;;;;;;;7328008;19;153538;-17
2022/06/13 00:29:29;;;;;;;7.22;2.90;;;;;;;;;;7328719;19;162053;-16
2022/06/13 00:32:00;;;;;;;7.13;2.40;;;;;;;;;;7327817;19;162534;-17
2022/06/13 00:34:34;;;;;;;4.60;2.25;;;;;;;;;;7329023;19;154026;-17
2022/06/13 00:37:06;;;;;;;5.47;2.40;;;;;;;;;;7328900;19;153839;-17
2022/06/13 00:39:37;;;;;;;10.15;2.72;;;;;;;;;;7328470;19;161936;-17
2022/06/13 00:42:08;;;;;;;6.20;2.53;;;;;;;;;;7328076;19;162378;-17
2022/06/13 00:44:41;;;;;;;5.00;2.15;;;;;;;;;;7328648;19;153961;-17
2022/06/13 00:47:13;;;;;;;5.10;2.40;;;;;;;;;;7328463;19;153733;-17
2022/06/13 00:49:47;;;;;;;5.45;2.17;;;;;;;;;;7328124;19;162147;-17
2022/06/13 00:52:23;;;;;;;4.93;2.13;;;;;;;;;;7327103;19;162362;-16
2022/06/13 00:54:56;;;;;;;4.43;2.28;;;;;;;;;;7328136;19;154278;-16
2022/06/13 00:57:30;;;;;;;5.30;2.53;;;;;;;;;;7328414;19;153606;-17
2022/06/13 01:00:07;;;;;;;3.40;2.20;;;;;;;;;;7327814;19;162036;-17
2022/06/13 01:02:40;;;;;;;4.13;2.50;;;;;;;;;;7327803;19;162562;-16
2022/06/13 01:05:18;;;;;;;5.32;2.22;;;;;;;;;;7328054;19;153974;-16
2022/06/13 01:07:50;;;;;;;4.72;2.45;;;;;;;;;;7327870;19;153575;-17
2022/06/13 01:13:07;;;;;;;6.50;2.33;;;;;;;;;;7332577;19;162280;-16
2022/06/13 01:16:08;;;;;;;4.60;2.45;;;;;;;;;;7332671;19;153995;-17
2022/06/13 01:19:03;;;;;;;6.05;2.58;;;;;;;;;;7334087;19;153685;-16
2022/06/13 01:21:45;;;;;;;5.25;2.10;;;;;;;;;;7334096;19;162044;-26
2022/06/13 01:24:40;;;;;;;4.22;2.30;;;;;;;;;;7335784;19;163073;-17
2022/06/13 01:27:43;;;;;;;3.10;2.05;;;;;;;;;;7334552;19;154146;-16
2022/06/13 01:30:47;;;;;;;6.15;2.67;;;;;;;;;;7334374;19;153808;-16
2022/06/13 01:33:26;;;;;;;8.15;2.78;;;;;;;;;;7332644;19;161786;-16
2022/06/13 01:36:09;;;;;;;5.13;2.17;;;;;;;;;;7333784;19;162395;-16
2022/06/13 01:38:58;;;;;;;9.35;3.28;;;;;;;;;;7334221;19;153911;-16
2022/06/13 01:41:36;;;;;;;9.80;3.10;;;;;;;;;;7334172;19;153629;-16
2022/06/13 01:44:13;;;;;;;13.25;3.15;;;;;;;;;;7333608;19;161798;-16
2022/06/13 01:46:56;;;;;;;9.68;2.95;;;;;;;;;;7333371;19;162564;-17
2022/06/13 01:49:29;;;;;;;;;;;;;;;;;;7334313;19;154177;-16
2022/06/13 01:52:05;;;;;;;7.35;2.58;;;;;;;;;;7333772;19;153596;-16
2022/06/13 01:54:45;;;;;;;8.85;2.78;;;;;;;;;;7330906;19;162192;-16
2022/06/13 01:57:22;;;;;;;12.90;3.30;;;;;;;;;;7333121;19;162596;-16
2022/06/13 01:59:59;;;;;;;10.68;3.25;;;;;;;;;;7333498;19;153979;-17
2022/06/13 02:02:40;;;;;;;10.80;3.88;;;;;;;;;;7333330;19;153574;-16
2022/06/13 02:05:17;;;;;;;11.18;3.63;;;;;;;;;;7332677;19;162135;-17
2022/06/13 02:07:51;;;;;;;9.77;2.75;;;;;;;;;;7337055;19;162400;-17
2022/06/13 02:10:46;;;;;;;9.57;3.28;;;;;;;;;;7333122;19;153980;-16
2022/06/13 02:13:23;;;;;;;7.75;2.72;;;;;;;;;;7332363;19;153602;-17
2022/06/13 02:15:58;;;;;;;12.55;3.20;;;;;;;;;;7330374;19;161637;-16
2022/06/13 02:18:35;;;;;;;12.48;3.55;;;;;;;;;;7334148;19;162495;-15
2022/06/13 02:21:11;;;;;;;10.55;3.33;;;;;;;;;;7333075;19;153968;-16
2022/06/13 02:23:47;;;;;;;13.90;3.25;;;;;;;;;;7332839;19;153549;-16
2022/06/13 02:26:23;;;;;;;9.40;3.28;;;;;;;;;;7332260;19;161825;-17
2022/06/13 02:28:59;;;;;;;8.80;3.05;;;;;;;;;;7332360;19;162758;-16
2022/06/13 02:31:36;;;;;;;10.88;3.28;;;;;;;;;;7332626;19;154113;-17
2022/06/13 02:34:15;;;;;;;8.40;3.35;;;;;;;;;;7330118;19;153604;-15
2022/06/13 02:36:52;;;;;;;8.20;2.97;;;;;;;;;;7331905;19;162046;-16
2022/06/13 02:39:27;;;;;;;8.10;2.88;;;;;;;;;;7332058;19;162548;-17
2022/06/13 02:42:03;;;;;;;12.40;2.70;;;;;;;;;;7332400;19;154178;-16
2022/06/13 02:44:37;;;;;;;9.27;2.90;;;;;;;;;;7332364;19;154251;-16
2022/06/13 02:47:12;;;;;;;8.05;3.50;;;;;;;;;;7331781;19;161963;-16
2022/06/13 02:49:52;;;;;;;11.52;3.33;;;;;;;;;;7331696;19;162335;-17
2022/06/13 02:52:30;;;;;;;10.05;3.30;;;;;;;;;;7332164;19;153838;-16
2022/06/13 02:55:04;;;;;;;10.02;2.85;;;;;;;;;;7329675;19;154112;-16
2022/06/13 02:57:41;;;;;;;12.98;3.42;;;;;;;;;;7331588;19;161983;-17
2022/06/13 03:00:28;;;;;;;9.13;3.60;;;;;;;;;;7330885;19;162338;-16
2022/06/13 03:03:11;;;;;;;10.43;3.75;;;;;;;;;;7331961;19;154144;-16
2022/06/13 03:06:00;;;;;;;10.07;3.35;;;;;;;;;;7331592;19;153546;-17
2022/06/13 03:08:48;;;;;;;13.77;3.20;;;;;;;;;;7330498;19;161819;-16
2022/06/13 03:11:46;;;;;;;12.23;3.10;;;;;;;;;;7330964;19;162661;-17
2022/06/13 03:14:49;;;;;;;8.73;3.13;;;;;;;;;;7328995;19;154028;-17
2022/06/13 03:17:31;;;;;;;10.05;3.20;;;;;;;;;;7330669;19;153712;-16
2022/06/13 03:20:11;;;;;;;12.68;4.25;;;;;;;;;;7330875;19;161742;-16
2022/06/13 03:22:50;;;;;;;11.32;3.38;;;;;;;;;;7330810;19;162490;-16
2022/06/13 03:25:30;;;;;;;12.10;3.17;;;;;;;;;;7331110;19;153946;-16
2022/06/13 03:28:08;;;;;;;9.60;3.15;;;;;;;;;;7331174;19;153350;-16
2022/06/13 03:30:44;;;;;;;12.63;4.18;;;;;;;;;;7330581;19;161808;-16
2022/06/13 03:36:09;;;;;;;9.55;3.25;;;;;;;;;;7329157;19;154147;-18
2022/06/13 03:38:47;;;;;;;7.53;3.50;;;;;;;;;;7330957;19;153552;-16
2022/06/13 03:41:20;;;;;;;9.55;2.92;;;;;;;;;;7329216;19;162076;-16
2022/06/13 03:43:57;;;;;;;10.70;3.28;;;;;;;;;;7330283;19;162533;-17
2022/06/13 03:46:35;;;;;;;14.70;4.03;;;;;;;;;;7330456;19;153991;-15
2022/06/13 03:49:12;;;;;;;13.73;3.88;;;;;;;;;;7329273;19;153538;-16
2022/06/13 03:51:46;;;;;;;10.65;3.13;;;;;;;;;;7329929;19;162309;-16
2022/06/13 03:54:26;;;;;;;15.55;4.20;;;;;;;;;;7329009;19;162357;-16
2022/06/13 03:57:02;;;;;;;13.23;3.88;;;;;;;;;;7330278;19;154159;-17
2022/06/13 03:59:40;;;;;;;14.75;3.88;;;;;;;;;;7330008;19;153527;-16
2022/06/13 04:02:14;;;;;;;9.65;3.38;;;;;;;;;;7329460;19;161664;-16
2022/06/13 04:04:48;;;;;;;14.02;3.47;;;;;;;;;;7328234;19;162816;-17
2022/06/13 04:07:21;;;;;;;13.38;4.40;;;;;;;;;;7330028;19;154410;-17
2022/06/13 04:09:57;;;;;;;9.35;3.40;;;;;;;;;;7329625;19;153536;-23
2022/06/13 04:12:50;;;;;;;11.95;3.85;;;;;;;;;;7330168;19;162044;-16
2022/06/13 04:15:48;;;;;;;13.30;3.65;;;;;;;;;;7327183;19;162381;-16
2022/06/13 04:18:34;;;;;;;11.32;3.50;;;;;;;;;;7329665;19;154229;-17
2022/06/13 04:21:14;;;;;;;10.50;3.05;;;;;;;;;;7329355;19;153565;-16
2022/06/13 04:23:53;;;;;;;12.15;3.33;;;;;;;;;;7327962;19;161947;-16
2022/06/13 04:26:35;;;;;;;9.15;3.28;;;;;;;;;;7328842;19;162318;-16
2022/06/13 04:29:12;;;;;;;11.88;3.45;;;;;;;;;;7333505;19;154002;-17
2022/06/13 04:31:44;;;;;;;16.52;3.88;;;;;;;;;;7329118;19;153948;-16
2022/06/13 04:34:18;;;;;;;12.48;4.05;;;;;;;;;;7328737;19;161762;-16
2022/06/13 04:36:51;;;;;;;11.18;3.47;;;;;;;;;;7328722;19;162625;-16
2022/06/13 04:39:33;;;;;;;12.05;3.63;;;;;;;;;;7328917;19;154002;-16
2022/06/13 04:42:09;;;;;;;12.30;3.93;;;;;;;;;;7328788;19;153997;-16
2022/06/13 04:44:43;;;;;;;10.50;3.58;;;;;;;;;;7328414;19;161866;-17
2022/06/13 04:47:18;;;;;;;14.55;3.85;;;;;;;;;;7332278;19;162636;-16
2022/06/13 04:49:55;;;;;;;14.68;4.10;;;;;;;;;;7335442;19;153980;-17
2022/06/13 04:52:30;;;;;;;7.38;2.85;;;;;;;;;;7335502;19;153599;-16
2022/06/13 04:55:06;;;;;;;10.77;3.47;;;;;;;;;;7334593;19;162252;-16
2022/06/13 04:57:41;;;;;;;11.05;4.28;;;;;;;;;;7334936;19;162382;-16
2022/06/13 05:00:14;;;;;;;14.30;3.78;;;;;;;;;;7335125;19;154132;-17
2022/06/13 05:02:47;;;;;;;9.52;3.47;;;;;;;;;;7335191;19;153601;-17
2022/06/13 05:05:32;;;;;;;11.32;3.38;;;;;;;;;;7333725;19;161926;-17
2022/06/13 05:08:13;;;;;;;12.27;3.47;;;;;;;;;;7334532;19;162640;-17
2022/06/13 05:10:50;;;;;;;8.18;3.15;;;;;;;;;;7334959;19;153974;-17
2022/06/13 05:13:27;;;;;;;12.45;3.55;;;;;;;;;;7334844;19;153546;-17
2022/06/13 05:16:07;;;;;;;9.77;3.30;;;;;;;;;;7330927;19;162104;-17
2022/06/13 05:19:10;;;;;;;10.30;4.10;;;;;;;;;;7334302;19;162568;-16
2022/06/13 05:21:53;;;;;;;11.75;3.58;;;;;;;;;;7334690;19;154376;-16
2022/06/13 05:24:42;;;;;;;14.50;3.95;;;;;;;;;;7334419;19;153810;-17
2022/06/13 05:27:14;;;;;;;11.10;3.75;;;;;;;;;;7333898;19;161800;-16
2022/06/13 05:29:48;;;;;;;12.43;3.40;;;;;;;;;;7333941;19;162288;-17
2022/06/13 05:32:23;;;;;;;13.00;3.95;;;;;;;;;;7334439;19;154172;-19
2022/06/13 05:34:56;;;;;;;10.52;3.42;;;;;;;;;;7332872;19;153538;-17
2022/06/13 05:37:27;;;;;;;15.57;4.68;;;;;;;;;;7333971;19;161853;-16
2022/06/13 05:39:59;;;;;;;32.83;4.45;;;;;;;;;;7333629;19;162527;-17
2022/06/13 05:42:30;;;;;;;14.13;3.65;;;;;;;;;;7333009;19;154126;-17
2022/06/13 05:45:04;;;;;;;12.23;3.92;;;;;;;;;;7334013;19;154031;-17
2022/06/13 05:47:35;;;;;;;11.05;3.88;;;;;;;;;;7336232;19;162066;-17
2022/06/13 05:50:07;;;;;;;11.80;3.38;;;;;;;;;;7337189;19;162483;-17
2022/06/13 05:52:38;;;;;;;16.87;4.33;;;;;;;;;;7333690;19;153962;-17
2022/06/13 05:55:11;;;;;;;13.35;3.75;;;;;;;;;;7333595;19;153647;-17
2022/06/13 05:58:01;;;;;;;15.10;3.78;;;;;;;;;;7332246;19;161980;-16
2022/06/13 06:00:39;;;;;;;13.23;4.03;;;;;;;;;;7336662;19;162492;-16
2022/06/13 06:03:11;;;;;;;10.32;3.60;;;;;;;;;;7331777;19;153997;-16
2022/06/13 06:05:43;;;;;;;12.73;3.08;;;;;;;;;;7330652;19;153718;-18
2022/06/13 06:08:20;;;;;;;7.40;3.13;;;;;;;;;;7333064;19;161879;-18
2022/06/13 06:10:52;;;;;;;13.50;3.53;;;;;;;;;;7332949;19;162618;-16
2022/06/13 06:13:24;;;;;;;13.43;4.20;;;;;;;;;;7333388;19;154107;-16
2022/06/13 06:15:59;;;;;;;13.43;3.95;;;;;;;;;;7330637;19;153749;-16
2022/06/13 06:18:31;;;;;;;12.65;3.90;;;;;;;;;;7332578;19;162064;-26
2022/06/13 06:21:02;;;;;;;8.82;3.25;;;;;;;;;;7331890;19;163649;-17
2022/06/13 06:23:34;;;;;;;9.00;3.53;;;;;;;;;;7332889;19;154126;-17
2022/06/13 06:26:05;;;;;;;12.57;3.17;;;;;;;;;;7332778;19;153519;-17
2022/06/13 06:28:36;;;;;;;8.00;3.17;;;;;;;;;;7332427;19;162149;-17
2022/06/13 06:31:11;;;;;;;8.93;3.47;;;;;;;;;;7331158;19;162454;-17
2022/06/13 06:33:42;;;;;;;11.70;4.20;;;;;;;;;;7332731;19;154034;-17
2022/06/13 06:36:14;;;;;;;9.13;3.03;;;;;;;;;;7334869;19;153692;-17
2022/06/13 06:38:46;;;;;;;12.45;3.30;;;;;;;;;;7332329;19;161913;-17
2022/06/13 06:41:17;;;;;;;7.63;3.22;;;;;;;;;;7332100;19;162437;-17
2022/06/13 06:43:48;;;;;;;9.45;3.20;;;;;;;;;;7332339;19;154021;-17
2022/06/13 06:46:23;;;;;;;7.95;2.90;;;;;;;;;;7332304;19;153500;-17
2022/06/13 06:48:54;;;;;;;6.47;2.88;;;;;;;;;;7331771;19;161806;-16
2022/06/13 06:51:29;;;;;;;11.90;3.15;;;;;;;;;;7331920;19;162851;-17
2022/06/13 07:02:23;;;;;;;10.60;3.30;;;;;;;;;;7331254;19;162344;-23
2022/06/13 07:04:55;;;;;;;13.45;4.07;;;;;;;;;;7331811;19;154007;-17
2022/06/13 07:07:27;;;;;;;8.10;2.97;;;;;;;;;;7331562;19;153505;-17
2022/06/13 07:09:58;;;;;;;10.23;2.83;;;;;;;;;;7329191;19;161939;-17
2022/06/13 07:12:30;;;;;;;10.60;3.35;;;;;;;;;;7330186;19;162685;-18
2022/06/13 07:15:01;;;;;;;6.93;2.92;;;;;;;;;;7328709;19;154080;-16
2022/06/13 07:17:35;;;;;;;6.10;2.50;;;;;;;;;;7329562;19;153671;-16
2022/06/13 07:20:07;;;;;;;9.43;2.97;;;;;;;;;;7330859;19;161763;-17
2022/06/13 07:22:38;;;;;;;6.00;2.50;;;;;;;;;;7330944;19;162143;-16
2022/06/13 07:25:13;;;;;;;6.82;2.55;;;;;;;;;;7330902;19;154145;-17
2022/06/13 07:27:44;;;;;;;8.13;2.40;;;;;;;;;;7331267;19;153532;-17
2022/06/13 07:30:17;;;;;;;8.35;2.85;;;;;;;;;;7330797;19;161802;-17
2022/06/13 07:32:50;;;;;;;;;;;;;;;;;;7331137;19;162130;-16
2022/06/13 07:35:22;;;;;;;;;;;;;;;;;;7331631;19;153947;-17
2022/06/13 07:40:37;;;;;;;5.03;2.97;;;;;;;;;;7329372;19;162366;-17
2022/06/13 07:43:11;;;;;;;7.63;2.90;;;;;;;;;;7330219;19;162395;-16
2022/06/13 07:45:42;;;;;;;6.82;2.58;;;;;;;;;;7330702;19;154003;-17
2022/06/13 07:48:26;;;;;;;7.32;2.97;;;;;;;;;;7330542;19;153688;-17
2022/06/13 07:50:58;;;;;;;6.38;2.60;;;;;;;;;;7328851;19;161992;-17
2022/06/13 07:53:29;;;;;;;6.38;3.05;;;;;;;;;;7330054;19;162403;-15
2022/06/13 07:56:20;;;;;;;7.70;3.03;;;;;;;;;;7330384;19;154013;-17
2022/06/13 07:58:53;;;;;;;9.57;2.97;;;;;;;;;;7327631;19;153615;-16
2022/06/13 08:01:25;;;;;;;8.90;2.92;;;;;;;;;;7329821;19;161846;-16
2022/06/13 08:03:59;;;;;;;7.67;3.23;;;;;;;;;;7329831;19;162373;-16
2022/06/13 08:06:30;;;;;;;10.85;3.22;;;;;;;;;;7330188;19;153962;-16
2022/06/13 08:09:01;;;;;;;6.70;3.00;;;;;;;;;;7330064;19;153707;-16
2022/06/13 08:11:37;;;;;;;9.07;2.75;;;;;;;;;;7330179;19;161756;-15
2022/06/13 08:14:08;;;;;;;8.52;3.13;;;;;;;;;;7328744;19;162557;-16
2022/06/13 08:16:40;;;;;;;9.60;2.92;;;;;;;;;;7329624;19;153968;-17
2022/06/13 08:19:14;;;;;;;6.95;2.85;;;;;;;;;;7333101;19;153557;-17
2022/06/13 08:21:45;;;;;;;8.18;2.63;;;;;;;;;;7334624;19;162079;-16
2022/06/13 08:24:16;;;;;;;9.70;3.05;;;;;;;;;;7335920;19;162401;-16
2022/06/13 08:26:48;;;;;;;10.10;3.28;;;;;;;;;;7335144;19;154218;-16
2022/06/13 08:29:19;;;;;;;11.15;3.42;;;;;;;;;;7336190;19;153923;-16
2022/06/13 08:31:50;;;;;;;6.55;2.80;;;;;;;;;;7335084;19;161920;-17
2022/06/13 08:34:24;;;;;;;9.55;3.03;;;;;;;;;;7335739;19;162393;-16
2022/06/13 08:36:56;;;;;;;8.02;2.45;;;;;;;;;;7335998;19;153994;-16
2022/06/13 08:39:27;;;;;;;11.90;3.00;;;;;;;;;;7338494;19;154760;-16
2022/06/13 08:42:01;;;;;;;11.95;3.38;;;;;;;;;;7335535;19;161844;-16
2022/06/13 08:45:03;;;;;;;9.02;3.00;;;;;;;;;;7335423;19;162658;-16
2022/06/13 08:47:46;;;;;;;8.00;3.40;;;;;;;;;;7333980;19;154413;-16
2022/06/13 08:50:31;;;;;;;8.57;2.75;;;;;;;;;;7334557;19;153670;-16
2022/06/13 08:53:07;;;;;;;9.55;3.10;;;;;;;;;;7335178;19;161948;-16
2022/06/13 08:55:47;;;;;;;6.75;2.53;;;;;;;;;;7335048;19;162503;-16
2022/06/13 08:58:25;;;;;;;6.35;2.85;;;;;;;;;;7334166;19;153968;-16
2022/06/13 09:01:02;;;;;;;9.98;3.35;;;;;;;;;;7335424;19;153515;-17
2022/06/13 09:03:38;;;;;;;6.75;2.92;;;;;;;;;;7333896;19;161836;-16
2022/06/13 09:06:17;;;;;;;6.30;3.25;;;;;;;;;;7334880;19;162381;-15
2022/06/13 09:08:54;;;;;;;8.52;3.30;;;;;;;;;;7335205;19;154034;-17
2022/06/13 09:11:32;;;;;;;10.38;2.88;;;;;;;;;;7335268;19;153721;-17
2022/06/13 09:14:12;;;;;;;9.57;3.13;;;;;;;;;;7334015;19;162075;-16
2022/06/13 09:16:46;;;;;;;13.02;3.88;;;;;;;;;;7334423;19;162378;-17
2022/06/13 09:19:24;;;;;;;6.53;2.83;;;;;;;;;;7331526;19;154127;-16
2022/06/13 09:22:04;;;;;;;8.55;3.50;;;;;;;;;;7333531;19;154087;-15
2022/06/13 09:24:42;;;;;;;7.80;3.30;;;;;;;;;;7333876;19;161747;-16
2022/06/13 09:27:19;;;;;;;9.10;3.08;;;;;;;;;;7334139;19;162810;-16
2022/06/13 09:29:57;;;;;;;11.27;2.95;;;;;;;;;;7334586;19;153991;-15
2022/06/13 09:32:35;;;;;;;9.93;3.20;;;;;;;;;;7333111;19;153634;-16
2022/06/13 09:35:16;;;;;;;10.00;3.03;;;;;;;;;;7333967;19;161964;-17
2022/06/13 09:37:53;;;;;;;11.07;3.45;;;;;;;;;;7332438;19;162767;-16
2022/06/13 09:40:35;;;;;;;6.45;2.40;;;;;;;;;;7334398;19;153751;-16
2022/06/13 09:43:19;;;;;;;7.53;3.33;;;;;;;;;;7334318;19;153575;-16
2022/06/13 09:46:01;;;;;;;8.45;3.08;;;;;;;;;;7333692;19;162042;-16
2022/06/13 09:48:41;;;;;;;12.20;3.17;;;;;;;;;;7332549;19;162360;-16
2022/06/13 09:51:25;;;;;;;7.55;3.13;;;;;;;;;;7334065;19;154008;-16
2022/06/13 09:54:06;;;;;;;6.47;2.92;;;;;;;;;;7333819;19;153501;-16
2022/06/13 09:56:43;;;;;;;10.82;3.80;;;;;;;;;;7333394;19;161938;-16
2022/06/13 09:59:30;;;;;;;8.77;3.00;;;;;;;;;;7331650;19;162456;-16
2022/06/13 10:02:07;;;;;;;10.70;3.20;;;;;;;;;;7333692;19;153728;-17
2022/06/13 10:04:46;;;;;;;10.48;3.25;;;;;;;;;;7333379;19;153539;-16
2022/06/13 10:07:26;;;;;;;8.95;3.60;;;;;;;;;;7332952;19;161859;-17
2022/06/13 10:10:10;;;;;;;9.32;3.08;;;;;;;;;;7333014;19;162445;-16
2022/06/13 10:12:57;;;;;;;7.85;3.35;;;;;;;;;;7333196;19;154017;-16
2022/06/13 10:15:36;;;;;;;9.07;3.42;;;;;;;;;;7335926;19;153598;-17
2022/06/13 10:18:41;;;;;;;6.25;2.70;;;;;;;;;;7331503;19;162034;-17
2022/06/13 10:21:18;;;;;;;8.75;3.42;;;;;;;;;;7331713;19;162562;-16
2022/06/13 10:24:00;;;;;;;7.85;3.05;;;;;;;;;;7333087;19;153959;-16
2022/06/13 10:26:43;;;;;;;8.23;3.28;;;;;;;;;;7332970;19;153569;-15
2022/06/13 10:29:32;;;;;;;;;;;;;;;;;;7333079;19;161760;-17
2022/06/13 10:32:14;;;;;;;9.63;3.45;;;;;;;;;;7332716;19;162524;-16
2022/06/13 10:34:59;;;;;;;10.35;3.17;;;;;;;;;;7332749;19;153989;-16
2022/06/13 10:37:41;;;;;;;7.32;2.88;;;;;;;;;;7332657;19;153557;-16
2022/06/13 10:40:16;;;;;;;6.80;2.95;;;;;;;;;;7330154;19;162163;-16
2022/06/13 10:42:49;;;;;;;;;;;;;;;;;;7332936;19;162706;-16
2022/06/13 10:45:23;;;;;;;8.48;3.20;;;;;;;;;;7329718;19;154417;-16
2022/06/13 10:48:01;;;;;;;9.02;3.25;;;;;;;;;;7332412;19;153725;-16
2022/06/13 10:50:38;;;;;;;8.82;3.20;;;;;;;;;;7335354;19;161790;-16
2022/06/13 10:53:12;;;;;;;11.60;3.97;;;;;;;;;;7330952;19;162525;-16
2022/06/13 10:55:46;;;;;;;7.95;3.20;;;;;;;;;;7332175;19;154153;-17
2022/06/13 10:58:23;;;;;;;9.52;2.70;;;;;;;;;;7332064;19;153513;-17
2022/06/13 11:01:10;;;;;;;10.60;3.17;;;;;;;;;;7328675;19;161959;-16
2022/06/13 11:03:46;;;;;;;9.40;3.03;;;;;;;;;;7331481;19;162378;-15
2022/06/13 11:06:24;;;;;;;7.00;2.80;;;;;;;;;;7331794;19;154223;-15
2022/06/13 11:09:06;;;;;;;8.32;3.13;;;;;;;;;;7331792;19;153576;-17
2022/06/13 11:11:41;;;;;;;9.98;2.83;;;;;;;;;;7331469;19;162010;-16
2022/06/13 11:14:34;;;;;;;9.98;3.00;;;;;;;;;;7330414;19;162506;-16
2022/06/13 11:22:42;;;;;;;8.60;3.22;;;;;;;;;;7329904;19;161822;-16
2022/06/13 11:25:25;;;;;;;6.25;2.55;;;;;;;;;;7330821;19;162638;-19
2022/06/13 11:28:10;;;;;;;7.93;3.10;;;;;;;;;;7331172;19;153996;-16
2022/06/13 11:30:53;;;;;;;7.82;3.35;;;;;;;;;;7331099;19;153515;-27
2022/06/13 11:33:28;;;;;;;;;;;;;;;;;;7331194;19;162000;-16
2022/06/13 11:36:03;;;;;;;8.05;3.55;;;;;;;;;;7330689;19;162530;-16
2022/06/13 11:38:36;;;;;;;8.63;2.95;;;;;;;;;;7329934;19;154063;-17
2022/06/13 11:41:14;;;;;;;10.98;3.53;;;;;;;;;;7328563;19;153630;-17
2022/06/13 11:43:50;;;;;;;10.48;3.33;;;;;;;;;;7330175;19;161882;-17
2022/06/13 11:46:45;;;;;;;11.20;3.65;;;;;;;;;;7330148;19;163102;-16
2022/06/13 11:49:32;;;;;;;13.13;3.80;;;;;;;;;;7330723;19;154211;-16
2022/06/13 11:55:20;;;;;;;7.40;3.17;;;;;;;;;;7328481;19;161994;-17
2022/06/13 11:57:56;;;;;;;9.82;3.40;;;;;;;;;;7329959;19;162468;-16
2022/06/13 12:00:33;;;;;;;11.30;3.00;;;;;;;;;;7328753;19;154157;-17
2022/06/13 12:03:19;;;;;;;7.55;3.08;;;;;;;;;;7330133;19;153761;-16
2022/06/13 12:05:53;;;;;;;8.85;3.47;;;;;;;;;;7329542;19;161784;-16
2022/06/13 12:08:28;;;;;;;7.82;2.90;;;;;;;;;;7330424;19;162614;-17
2022/06/13 12:11:05;;;;;;;6.97;2.83;;;;;;;;;;7332530;19;154803;-17
2022/06/13 12:13:40;;;;;;;11.20;3.53;;;;;;;;;;7329553;19;154241;-17
2022/06/13 12:16:26;;;;;;;6.65;2.53;;;;;;;;;;7327897;19;133709;-16
2022/06/13 12:19:09;;;;;;;7.03;3.13;;;;;;;;;;7329156;19;162306;-17
2022/06/13 12:21:45;;;;;;;7.70;2.90;;;;;;;;;;7326812;19;154016;-17
2022/06/13 12:24:22;;;;;;;9.15;3.17;;;;;;;;;;7329224;19;153494;-16
2022/06/13 12:27:02;;;;;;;9.80;2.90;;;;;;;;;;7328996;19;161949;-17
2022/06/13 12:30:02;;;;;;;8.45;3.47;;;;;;;;;;7328721;19;162256;-18
2022/06/13 12:32:38;;;;;;;9.77;3.40;;;;;;;;;;7328949;19;154860;-18
2022/06/13 12:35:42;;;;;;;8.13;2.92;;;;;;;;;;7327806;19;153583;-17
2022/06/13 12:38:27;;;;;;;5.30;2.50;;;;;;;;;;7329554;19;162216;-18
2022/06/13 12:41:09;;;;;;;6.95;2.65;;;;;;;;;;7331052;19;162470;-18
2022/06/13 12:44:08;;;;;;;8.38;3.10;;;;;;;;;;7328683;19;154012;-18
2022/06/13 12:46:54;;;;;;;12.75;3.55;;;;;;;;;;7328395;19;154074;-18
2022/06/13 12:49:45;;;;;;;8.27;3.08;;;;;;;;;;7331234;19;162382;-18
2022/06/13 12:52:31;;;;;;;7.25;2.92;;;;;;;;;;7327956;19;162383;-18
2022/06/13 12:55:28;;;;;;;7.93;3.40;;;;;;;;;;7328303;19;154177;-17
2022/06/13 12:58:11;;;;;;;7.78;3.35;;;;;;;;;;7330178;19;153523;-18
2022/06/13 13:00:49;;;;;;;5.30;2.83;;;;;;;;;;7331118;19;161852;-18
2022/06/13 13:03:40;;;;;;;7.20;2.88;;;;;;;;;;7327613;19;162448;-17
2022/06/13 13:06:22;;;;;;;9.25;3.35;;;;;;;;;;7328032;19;154151;-17
2022/06/13 13:09:09;;;;;;;8.63;3.22;;;;;;;;;;7333527;19;153543;-17
2022/06/13 13:11:52;;;;;;;8.18;2.83;;;;;;;;;;7334276;19;161470;-17
2022/06/13 13:14:33;;;;;;;5.43;2.67;;;;;;;;;;7333259;19;162410;-17
2022/06/13 13:17:27;;;;;;;8.88;3.17;;;;;;;;;;7334667;19;153953;-18
2022/06/13 13:20:04;;;;;;;7.43;2.70;;;;;;;;;;7334273;19;153563;-18
2022/06/13 13:22:45;;;;;;;7.95;3.05;;;;;;;;;;7334001;19;162191;-18
2022/06/13 13:25:42;;;;;;;13.05;3.75;;;;;;;;;;7333311;19;162413;-18
2022/06/13 13:28:21;;;;;;;12.82;3.75;;;;;;;;;;7334519;19;153759;-17
2022/06/13 13:30:59;;;;;;;10.50;3.60;;;;;;;;;;7334164;19;153578;-18
2022/06/13 13:34:02;;;;;;;11.35;4.40;;;;;;;;;;7332784;19;161835;-17
2022/06/13 13:36:43;;;;;;;13.02;3.50;;;;;;;;;;7332515;19;162278;-17
2022/06/13 13:39:19;;;;;;;6.78;3.53;;;;;;;;;;7334017;19;153981;-17
2022/06/13 13:42:00;;;;;;;11.63;4.00;;;;;;;;;;7332231;19;153538;-17
2022/06/13 13:44:35;;;;;;;9.77;3.33;;;;;;;;;;7333559;19;161979;-18
2022/06/13 13:47:13;;;;;;;10.88;3.88;;;;;;;;;;7333694;19;162906;-17
2022/06/13 13:49:50;;;;;;;7.53;3.08;;;;;;;;;;7334031;19;154128;-18
2022/06/13 13:52:26;;;;;;;13.43;3.50;;;;;;;;;;7333932;19;153907;-18
2022/06/13 13:55:01;;;;;;;10.57;3.55;;;;;;;;;;7333369;19;161828;-18
2022/06/13 13:57:41;;;;;;;8.07;3.28;;;;;;;;;;7332285;19;162364;-17
2022/06/13 14:00:30;;;;;;;8.93;3.47;;;;;;;;;;7333550;19;154130;-17
2022/06/13 14:03:11;;;;;;;10.90;3.45;;;;;;;;;;7333459;19;153862;-18
2022/06/13 14:05:47;;;;;;;8.43;3.50;;;;;;;;;;7333135;19;162069;-17
2022/06/13 14:08:21;;;;;;;11.98;3.45;;;;;;;;;;7332814;19;162564;-17
2022/06/13 14:10:57;;;;;;;11.98;2.88;;;;;;;;;;7332437;19;153731;-17
2022/06/13 14:13:34;;;;;;;14.68;3.20;;;;;;;;;;7333035;19;153875;-17
2022/06/13 14:16:20;;;;;;;9.50;3.70;;;;;;;;;;7330339;19;161817;-17
2022/06/13 14:19:14;;;;;;;8.77;3.35;;;;;;;;;;7335756;19;162396;-18
2022/06/13 14:22:13;;;;;;;10.30;3.58;;;;;;;;;;7330770;19;154362;-18
2022/06/13 14:25:03;;;;;;;11.95;3.38;;;;;;;;;;7331667;19;153832;-17
2022/06/13 14:27:36;;;;;;;9.65;3.53;;;;;;;;;;7332435;19;161923;-16
2022/06/13 14:33:04;;;;;;;9.07;3.28;;;;;;;;;;7332642;19;154500;-17
2022/06/13 14:35:53;;;;;;;8.37;3.37;;;;;;;;;;7331046;19;155243;-17
2022/06/13 14:38:31;;;;;;;9.25;2.90;;;;;;;;;;7332010;19;161820;-17
2022/06/13 14:41:11;;;;;;;8.95;3.67;;;;;;;;;;7331776;19;162348;-17
2022/06/13 14:43:53;;;;;;;13.57;3.88;;;;;;;;;;7332136;19;153792;-17
2022/06/13 14:46:41;;;;;;;10.47;3.57;;;;;;;;;;7332297;19;153554;-18
2022/06/13 14:49:23;;;;;;;7.63;3.30;;;;;;;;;;7332674;19;161941;-18
2022/06/13 14:52:13;;;;;;;7.50;3.33;;;;;;;;;;7331683;19;162315;-17
2022/06/13 14:54:54;;;;;;;10.35;3.20;;;;;;;;;;7331706;19;153999;-17
2022/06/13 14:57:44;;;;;;;13.13;3.85;;;;;;;;;;7331637;19;153672;-17
2022/06/13 15:00:20;;;;;;;7.65;3.50;;;;;;;;;;7331577;19;162094;-18
2022/06/13 15:03:16;;;;;;;10.43;3.35;;;;;;;;;;7329458;19;162575;-18
2022/06/13 15:06:04;;;;;;;7.90;2.75;;;;;;;;;;7331764;19;154029;-18
2022/06/13 15:09:01;;;;;;;9.48;3.13;;;;;;;;;;7331703;19;153682;-18
2022/06/13 15:11:33;;;;;;;7.32;3.20;;;;;;;;;;7331203;19;161897;-17
2022/06/13 15:14:04;;;;;;;14.25;3.50;;;;;;;;;;7330893;19;162335;-17
2022/06/13 15:16:36;;;;;;;8.82;3.50;;;;;;;;;;7331546;19;153935;-17
2022/06/13 15:19:11;;;;;;;9.95;3.00;;;;;;;;;;7331235;19;153360;-18
2022/06/13 15:21:49;;;;;;;9.15;3.08;;;;;;;;;;7330663;19;162026;-18
2022/06/13 15:24:21;;;;;;;10.57;3.45;;;;;;;;;;7330815;19;162364;-18
2022/06/13 15:27:05;;;;;;;13.60;3.23;;;;;;;;;;7330986;19;154266;-17
2022/06/13 15:29:39;;;;;;;8.98;3.45;;;;;;;;;;7329494;19;153739;-16
2022/06/13 15:32:26;;;;;;;10.20;3.13;;;;;;;;;;7330051;19;161928;-16
2022/06/13 15:35:02;;;;;;;11.32;3.58;;;;;;;;;;7330412;19;162531;-17
2022/06/13 15:37:35;;;;;;;9.13;3.42;;;;;;;;;;7330745;19;153830;-17
2022/06/13 15:40:08;;;;;;;11.02;3.70;;;;;;;;;;7330440;19;153525;-17
2022/06/13 15:42:42;;;;;;;7.88;3.03;;;;;;;;;;7328797;19;162171;-17
2022/06/13 15:45:16;;;;;;;8.85;2.95;;;;;;;;;;7330213;19;162402;-17
2022/06/13 15:47:50;;;;;;;9.23;3.00;;;;;;;;;;7330556;19;153984;-17
2022/06/13 15:50:26;;;;;;;9.63;3.00;;;;;;;;;;7330444;19;153614;-17
2022/06/13 15:53:00;;;;;;;13.60;3.15;;;;;;;;;;7330039;19;161906;-16
2022/06/13 15:55:48;;;;;;;11.70;3.10;;;;;;;;;;7329850;19;162459;-17
2022/06/13 15:58:26;;;;;;;10.13;3.08;;;;;;;;;;7328952;19;154026;-16
2022/06/13 16:00:59;;;;;;;7.72;3.10;;;;;;;;;;7329882;19;153967;-16